Time;durP1;ratioP1;P1;durP2;ratioP2;P2;SDS_P1;SDS_P2;PMS_P1;PMS_P2;Temp;Humidity;BMP_temperature;BMP_pressure;BME280_temperature;BME280_humidity;BME280_pressure;Samples;Min_cycle;Max_cycle;Signal;HPM_P1;HPM_P2
2022/09/14 00:01:58;;;;;;;6.42;5.87;;;;;;;11.69;100.00;98919.36;1682222;85;21047;-72
2022/09/14 00:04:25;;;;;;;6.03;5.33;;;;;;;11.69;100.00;98915.86;1692223;83;20963;-71
2022/09/14 00:06:52;;;;;;;7.67;5.65;;;;;;;11.69;100.00;98916.66;1699925;83;20953;-71
2022/09/14 00:11:58;;;;;;;7.40;5.78;;;;;;;11.69;100.00;98913.97;1743030;82;21113;-72
2022/09/14 00:14:25;;;;;;;11.03;5.35;;;;;;;11.69;100.00;98913.16;1717008;82;21019;-71
2022/09/14 00:16:52;;;;;;;8.45;5.85;;;;;;;11.70;100.00;98901.31;1740170;81;21000;-71
2022/09/14 00:19:24;;;;;;;7.58;5.87;;;;;;;11.73;100.00;98904.28;1731900;80;21121;-71
2022/09/14 00:21:54;;;;;;;6.65;5.97;;;;;;;11.76;100.00;98912.34;1736294;80;21004;-71
2022/09/14 00:24:22;;;;;;;7.53;5.30;;;;;;;11.76;100.00;98909.11;1735833;82;21102;-70
2022/09/14 00:26:50;;;;;;;6.97;5.33;;;;;;;11.76;100.00;98909.64;1740303;81;21035;-71
2022/09/14 00:29:17;;;;;;;12.13;5.50;;;;;;;11.74;100.00;98901.86;1725234;81;21012;-71
2022/09/14 00:31:44;;;;;;;5.42;4.90;;;;;;;11.73;100.00;98906.98;1760854;81;21090;-71
2022/09/14 00:34:14;;;;;;;7.55;5.95;;;;;;;11.72;100.00;98909.91;1737303;81;21074;-71
2022/09/14 00:36:45;;;;;;;6.28;4.87;;;;;;;11.70;100.00;98906.13;1747069;81;21835;-71
2022/09/14 00:39:11;;;;;;;5.10;4.70;;;;;;;11.73;100.00;98911.55;1706794;81;21239;-71
2022/09/14 00:41:42;;;;;;;10.90;5.95;;;;;;;11.77;100.00;98912.61;1698561;84;21034;-71
2022/09/14 00:44:17;;;;;;;6.72;5.10;;;;;;;11.80;100.00;98902.61;1683761;85;21083;-72
2022/09/14 00:46:47;;;;;;;10.82;4.50;;;;;;;11.82;100.00;98909.89;1683461;85;21079;-71
2022/09/14 00:49:24;;;;;;;6.97;5.12;;;;;;;11.80;100.00;98903.42;1698608;84;21901;-71
2022/09/14 00:52:08;;;;;;;5.25;4.75;;;;;;;11.77;100.00;98900.48;1698678;84;21118;-71
2022/09/14 00:54:39;;;;;;;5.35;4.87;;;;;;;11.74;100.00;98901.86;1719930;83;21540;-71
2022/09/14 00:57:07;;;;;;;5.40;4.47;;;;;;;11.74;100.00;98904.55;1724230;83;21048;-71
2022/09/14 00:59:37;;;;;;;6.05;4.10;;;;;;;11.79;100.00;98901.03;1727377;83;21042;-71
2022/09/14 01:02:05;;;;;;;5.50;5.00;;;;;;;11.85;100.00;98901.78;1698612;84;21963;-71
2022/09/14 01:04:32;;;;;;;5.60;5.10;;;;;;;11.88;100.00;98901.25;1699480;83;21508;-70
2022/09/14 01:07:18;;;;;;;5.03;4.62;;;;;;;11.89;100.00;98894.25;1722347;83;20992;-71
2022/09/14 01:10:13;;;;;;;6.87;4.15;;;;;;;11.93;100.00;98900.69;1727763;83;21111;-71
2022/09/14 01:13:10;;;;;;;5.53;5.03;;;;;;;11.89;100.00;98902.33;1727799;83;21055;-71
2022/09/14 01:15:59;;;;;;;4.40;4.00;;;;;;;11.86;100.00;98893.97;1727287;83;22196;-71
2022/09/14 01:18:57;;;;;;;8.88;4.60;;;;;;;11.87;100.00;98903.67;1704413;83;21524;-71
2022/09/14 01:21:31;;;;;;;4.67;4.28;;;;;;;11.84;100.00;98895.62;1677020;85;21589;-71
2022/09/14 01:24:18;;;;;;;5.08;4.67;;;;;;;11.85;100.00;98901.25;1677135;84;21064;-71
2022/09/14 01:26:51;;;;;;;5.30;4.20;;;;;;;11.86;100.00;98906.09;1706911;83;21044;-72
2022/09/14 01:29:27;;;;;;;5.03;4.53;;;;;;;11.84;100.00;98900.20;1727706;82;21238;-71
2022/09/14 01:32:13;;;;;;;4.30;3.90;;;;;;;11.80;100.00;98895.88;1727450;82;21124;-70
2022/09/14 01:35:02;;;;;;;5.47;4.97;;;;;;;11.78;100.00;98894.02;1704190;83;21039;-72
2022/09/14 01:37:50;;;;;;;5.80;4.33;;;;;;;11.76;100.00;98887.55;1717530;83;21539;-70
2022/09/14 01:40:27;;;;;;;5.97;4.47;;;;;;;11.75;100.00;98886.48;1755021;80;21048;-71
2022/09/14 01:43:20;;;;;;;5.35;4.95;;;;;;;11.75;100.00;98893.20;1726735;82;21040;-71
2022/09/14 01:45:56;;;;;;;5.75;5.22;;;;;;;11.74;100.00;98880.84;1753357;81;21059;-72
2022/09/14 01:48:37;;;;;;;5.95;5.45;;;;;;;11.75;100.00;98885.12;1741302;81;22317;-72
2022/09/14 01:51:07;;;;;;;6.28;5.65;;;;;;;11.76;100.00;98879.47;1740486;82;22001;-71
2022/09/14 01:53:44;;;;;;;6.70;6.03;;;;;;;11.77;100.00;98879.74;1742572;81;21095;-72
2022/09/14 01:56:30;;;;;;;12.18;5.97;;;;;;;11.77;100.00;98878.40;1748592;81;21917;-73
2022/09/14 01:59:07;;;;;;;6.83;6.12;;;;;;;11.78;100.00;98873.81;1748458;81;20979;-73
2022/09/14 02:01:38;;;;;;;8.58;6.25;;;;;;;11.79;100.00;98873.55;1747864;81;21540;-72
2022/09/14 02:04:09;;;;;;;6.42;5.80;;;;;;;11.78;100.00;98874.63;1753031;81;21007;-72
2022/09/14 02:06:39;;;;;;;7.00;6.40;;;;;;;11.79;100.00;98868.16;1758945;81;20995;-71
2022/09/14 02:09:09;;;;;;;7.30;6.42;;;;;;;11.82;100.00;98870.83;1745234;82;21249;-72
2022/09/14 02:11:38;;;;;;;7.25;6.53;;;;;;;11.87;100.00;98867.30;1758424;81;20939;-72
2022/09/14 02:14:05;;;;;;;5.85;5.35;;;;;;;11.91;100.00;98871.05;1758573;81;20900;-71
2022/09/14 02:16:31;;;;;;;6.12;5.50;;;;;;;11.92;100.00;98863.23;1758462;80;21064;-72
2022/09/14 02:19:00;;;;;;;9.53;5.80;;;;;;;11.93;100.00;98856.77;1758726;80;21095;-72
2022/09/14 02:21:31;;;;;;;5.53;5.10;;;;;;;11.93;100.00;98849.48;1758413;80;21228;-72
2022/09/14 02:23:58;;;;;;;5.70;5.03;;;;;;;11.92;100.00;98864.04;1758737;80;20952;-72
2022/09/14 02:26:26;;;;;;;5.70;4.95;;;;;;;11.89;100.00;98849.79;1758676;80;20988;-71
2022/09/14 02:28:55;;;;;;;9.63;5.67;;;;;;;11.88;100.00;98848.71;1747900;81;21102;-71
2022/09/14 02:31:45;;;;;;;9.43;6.50;;;;;;;11.90;100.00;98846.52;1757972;80;21509;-72
2022/09/14 02:34:33;;;;;;;7.15;6.03;;;;;;;11.91;100.00;98847.60;1758480;80;21261;-72
2022/09/14 02:37:31;;;;;;;7.78;5.80;;;;;;;11.93;100.00;98852.19;1758518;80;20967;-72
2022/09/14 02:40:08;;;;;;;7.22;6.15;;;;;;;11.96;100.00;98852.96;1758178;80;21102;-73
2022/09/14 02:43:16;;;;;;;8.23;4.97;;;;;;;11.97;100.00;98845.14;1758205;81;20915;-71
2022/09/14 02:46:21;;;;;;;7.72;6.17;;;;;;;12.02;100.00;98849.70;1758226;80;21042;-70
2022/09/14 02:49:07;;;;;;;5.97;5.30;;;;;;;12.02;100.00;98850.51;1758559;81;21256;-71
2022/09/14 02:52:02;;;;;;;7.03;5.70;;;;;;;12.02;100.00;98853.74;1756439;80;21240;-71
2022/09/14 02:54:39;;;;;;;9.08;5.33;;;;;;;11.98;100.00;98849.46;1728470;82;21418;-71
2022/09/14 02:57:05;;;;;;;5.87;4.97;;;;;;;11.98;100.00;98856.73;1720879;83;21058;-73
2022/09/14 02:59:32;;;;;;;5.37;4.72;;;;;;;11.96;100.00;98848.92;1746574;81;21082;-72
2022/09/14 03:01:59;;;;;;;6.78;6.10;;;;;;;11.99;100.00;98847.58;1758472;81;21179;-72
2022/09/14 03:04:27;;;;;;;6.10;5.45;;;;;;;12.01;100.00;98852.13;1774668;80;21017;-72
2022/09/14 03:06:53;;;;;;;7.87;6.90;;;;;;;12.02;100.00;98848.35;1726590;82;21084;-72
2022/09/14 03:09:20;;;;;;;6.03;5.53;;;;;;;12.03;100.00;98845.92;1734574;82;21056;-71
2022/09/14 03:11:46;;;;;;;7.97;5.58;;;;;;;12.04;100.00;98844.81;1731947;81;20954;-73
2022/09/14 03:14:13;;;;;;;5.83;5.25;;;;;;;12.04;100.00;98836.73;1758953;81;21151;-72
2022/09/14 03:16:40;;;;;;;8.13;5.30;;;;;;;12.04;100.00;98844.27;1758831;80;21104;-72
2022/09/14 03:19:06;;;;;;;5.83;5.22;;;;;;;12.03;100.00;98837.84;1749836;80;21059;-72
2022/09/14 03:21:33;;;;;;;6.00;4.20;;;;;;;12.05;100.00;98839.16;1722582;81;21052;-71
2022/09/14 03:23:59;;;;;;;10.70;4.67;;;;;;;12.10;100.00;98845.05;1736106;81;21001;-71
2022/09/14 03:26:28;;;;;;;6.17;5.08;;;;;;;12.12;100.00;98838.85;1746143;81;21195;-70
2022/09/14 03:28:57;;;;;;;5.78;5.28;;;;;;;12.09;100.00;98833.46;1737306;81;20909;-71
2022/09/14 03:31:25;;;;;;;6.53;5.97;;;;;;;12.11;100.00;98835.34;1734750;82;21062;-72
2022/09/14 03:33:55;;;;;;;9.00;5.15;;;;;;;12.12;100.00;98826.72;1734489;82;21444;-71
2022/09/14 03:36:22;;;;;;;8.58;5.30;;;;;;;12.13;100.00;98831.81;1726156;83;21108;-72
2022/09/14 03:38:52;;;;;;;8.58;7.75;;;;;;;12.14;100.00;98835.31;1774547;80;21995;-71
2022/09/14 03:41:20;;;;;;;9.23;4.80;;;;;;;12.13;100.00;98833.16;1759766;80;21014;-71
2022/09/14 03:43:46;;;;;;;5.78;4.40;;;;;;;12.12;100.00;98834.81;1753425;80;21076;-73
2022/09/14 03:46:16;;;;;;;5.10;4.70;;;;;;;12.12;100.00;98841.00;1753707;81;21004;-73
2022/09/14 03:48:43;;;;;;;5.00;4.60;;;;;;;12.12;100.00;98837.50;1753140;80;21049;-72
2022/09/14 03:51:11;;;;;;;6.15;4.85;;;;;;;12.13;100.00;98836.42;1743304;81;21194;-73
2022/09/14 03:53:38;;;;;;;4.33;3.92;;;;;;;12.12;100.00;98846.94;1722030;83;20948;-73
2022/09/14 03:56:11;;;;;;;5.80;5.17;;;;;;;12.08;100.00;98842.66;1722270;83;20995;-72
2022/09/14 03:58:38;;;;;;;6.62;5.42;;;;;;;12.06;100.00;98843.47;1722195;82;21030;-73
2022/09/14 04:01:07;;;;;;;5.90;4.17;;;;;;;12.05;100.00;98847.78;1753080;81;21035;-73
2022/09/14 04:03:34;;;;;;;4.40;4.10;;;;;;;12.07;100.00;98858.56;1753640;81;21075;-73
2022/09/14 04:06:05;;;;;;;5.58;4.35;;;;;;;12.09;100.00;98859.06;1733579;82;21008;-73
2022/09/14 04:08:34;;;;;;;4.45;4.05;;;;;;;12.11;100.00;98856.10;1753719;81;21569;-72
2022/09/14 04:11:06;;;;;;;5.17;4.40;;;;;;;12.14;100.00;98858.22;1760960;81;21012;-70
2022/09/14 04:13:33;;;;;;;5.35;4.85;;;;;;;12.11;100.00;98860.14;1733232;82;21031;-70
2022/09/14 04:16:01;;;;;;;4.10;3.80;;;;;;;12.07;100.00;98860.45;1711153;82;21219;-69
2022/09/14 04:18:27;;;;;;;6.35;4.95;;;;;;;12.04;100.00;98859.64;1737702;81;21005;-69
2022/09/14 04:21:01;;;;;;;4.83;4.40;;;;;;;12.01;100.00;98856.97;1714300;83;21039;-71
2022/09/14 04:23:27;;;;;;;5.78;4.97;;;;;;;12.00;100.00;98855.36;1689041;82;21072;-70
2022/09/14 04:25:54;;;;;;;4.25;3.95;;;;;;;11.99;100.00;98871.26;1711207;82;21141;-72
2022/09/14 04:28:21;;;;;;;5.30;4.03;;;;;;;12.00;100.00;98874.77;1734151;82;21142;-72
2022/09/14 04:31:01;;;;;;;4.25;3.92;;;;;;;12.01;100.00;98873.68;1733834;82;20983;-71
2022/09/14 04:33:33;;;;;;;4.17;3.77;;;;;;;12.02;100.00;98877.45;1733374;81;21519;-72
2022/09/14 04:36:05;;;;;;;4.70;4.30;;;;;;;12.05;100.00;98880.93;1746488;80;20985;-70
2022/09/14 04:38:32;;;;;;;4.28;3.87;;;;;;;12.06;100.00;98874.46;1739802;81;21106;-72
2022/09/14 04:40:59;;;;;;;3.92;3.62;;;;;;;12.05;100.00;98876.89;1757517;81;21130;-72
2022/09/14 04:43:26;;;;;;;4.83;4.42;;;;;;;12.05;100.00;98875.54;1757784;81;21751;-71
2022/09/14 04:45:53;;;;;;;5.62;4.58;;;;;;;12.03;100.00;98866.14;1758671;81;21044;-70
2022/09/14 04:48:20;;;;;;;4.28;3.98;;;;;;;12.01;100.00;98863.71;1758462;81;20972;-73
2022/09/14 04:50:47;;;;;;;8.85;3.72;;;;;;;12.02;100.00;98867.22;1758668;80;21000;-70
2022/09/14 04:53:14;;;;;;;4.33;3.80;;;;;;;12.02;100.00;98862.63;1758591;81;21603;-73
2022/09/14 04:55:41;;;;;;;4.55;4.15;;;;;;;12.01;100.00;98875.03;1758654;81;20983;-70
2022/09/14 04:58:08;;;;;;;10.18;4.05;;;;;;;12.01;100.00;98869.64;1736639;81;21333;-71
2022/09/14 05:00:35;;;;;;;5.47;3.83;;;;;;;12.02;100.00;98868.02;1758618;81;21056;-71
2022/09/14 05:03:03;;;;;;;3.85;3.52;;;;;;;12.04;100.00;98870.42;1758011;81;21031;-71
2022/09/14 05:05:30;;;;;;;3.92;3.62;;;;;;;12.03;100.00;98870.98;1758482;81;21036;-70
2022/09/14 05:07:57;;;;;;;6.55;3.77;;;;;;;12.02;100.00;98877.45;1758534;81;20932;-72
2022/09/14 05:10:26;;;;;;;4.72;3.45;;;;;;;11.96;100.00;98878.56;1758568;81;21095;-71
2022/09/14 05:12:53;;;;;;;4.00;3.70;;;;;;;11.94;100.00;98871.86;1758081;81;21056;-71
2022/09/14 05:15:19;;;;;;;4.40;3.92;;;;;;;11.93;100.00;98879.67;1758664;80;21104;-72
2022/09/14 05:17:46;;;;;;;8.25;4.12;;;;;;;11.93;100.00;98885.87;1736953;81;22056;-74
2022/09/14 05:20:13;;;;;;;3.67;3.37;;;;;;;11.93;100.00;98893.14;1758939;81;21008;-69
2022/09/14 05:22:40;;;;;;;4.33;3.15;;;;;;;11.96;100.00;98881.25;1758768;81;21062;-71
2022/09/14 05:25:08;;;;;;;5.22;3.85;;;;;;;11.99;100.00;98899.55;1758683;81;21583;-70
2022/09/14 05:27:35;;;;;;;3.60;3.30;;;;;;;12.00;100.00;98887.70;1758757;81;21517;-72
2022/09/14 05:30:01;;;;;;;5.92;3.37;;;;;;;12.01;100.00;98892.01;1758694;81;21615;-71
2022/09/14 05:32:28;;;;;;;4.35;4.05;;;;;;;12.00;100.00;98903.05;1758134;81;21000;-68
2022/09/14 05:34:55;;;;;;;3.77;3.15;;;;;;;11.99;100.00;98906.28;1758711;81;20965;-68
2022/09/14 05:37:21;;;;;;;3.37;3.17;;;;;;;12.00;100.00;98909.80;1758378;81;22455;-69
2022/09/14 05:39:48;;;;;;;4.28;3.87;;;;;;;11.98;100.00;98903.89;1759144;81;21137;-70
2022/09/14 05:42:14;;;;;;;3.70;3.40;;;;;;;12.01;100.00;98908.18;1761003;81;21083;-71
2022/09/14 05:44:41;;;;;;;6.53;3.98;;;;;;;12.06;100.00;98908.15;1756859;81;21004;-69
2022/09/14 05:47:07;;;;;;;4.72;4.28;;;;;;;12.07;100.00;98905.73;1754498;81;21063;-71
2022/09/14 05:49:34;;;;;;;6.15;4.40;;;;;;;12.10;100.00;98898.95;1760558;81;21350;-71
2022/09/14 05:52:02;;;;;;;4.22;3.83;;;;;;;12.12;100.00;98892.76;1760925;81;21518;-71
2022/09/14 05:54:29;;;;;;;5.72;3.60;;;;;;;12.14;100.00;98893.27;1737141;81;21299;-69
2022/09/14 05:56:56;;;;;;;4.53;3.60;;;;;;;12.14;100.00;98887.34;1760687;81;20949;-70
2022/09/14 05:59:23;;;;;;;4.00;3.42;;;;;;;12.15;100.00;98888.14;1757798;80;21056;-70
2022/09/14 06:01:51;;;;;;;4.05;3.58;;;;;;;12.19;100.00;98902.67;1733857;82;21082;-72
2022/09/14 06:04:18;;;;;;;3.87;3.58;;;;;;;12.22;100.00;98898.09;1734221;82;21046;-70
2022/09/14 06:06:45;;;;;;;5.00;3.77;;;;;;;12.24;100.00;98900.75;1733965;82;21658;-69
2022/09/14 06:09:12;;;;;;;4.37;3.95;;;;;;;12.26;100.00;98895.09;1761720;81;20975;-71
2022/09/14 06:11:39;;;;;;;4.72;4.33;;;;;;;12.30;100.00;98887.23;1742103;80;22216;-69
2022/09/14 06:14:06;;;;;;;4.62;4.22;;;;;;;12.32;100.00;98893.17;1759998;80;21047;-69
2022/09/14 06:16:33;;;;;;;6.28;4.45;;;;;;;12.33;100.00;98894.76;1744719;80;21066;-69
2022/09/14 06:19:00;;;;;;;5.40;4.90;;;;;;;12.36;100.00;98896.91;1731534;82;21063;-69
2022/09/14 06:21:32;;;;;;;6.17;4.67;;;;;;;12.39;100.00;98899.84;1757633;81;20999;-70
2022/09/14 06:23:59;;;;;;;4.60;4.12;;;;;;;12.47;100.00;98889.02;1763759;80;21031;-70
2022/09/14 06:26:26;;;;;;;5.17;4.67;;;;;;;12.53;100.00;98894.07;1763499;81;21098;-69
2022/09/14 06:28:53;;;;;;;5.20;4.80;;;;;;;12.57;100.00;98891.61;1749868;81;21607;-69
2022/09/14 06:31:21;;;;;;;5.12;4.62;;;;;;;12.63;100.00;98895.34;1747372;80;21825;-70
2022/09/14 06:33:49;;;;;;;4.75;4.35;;;;;;;12.64;100.00;98894.27;1758362;81;21024;-69
2022/09/14 06:36:20;;;;;;;4.53;4.10;;;;;;;12.63;100.00;98892.64;1760722;81;21028;-70
2022/09/14 06:38:48;;;;;;;5.15;4.03;;;;;;;12.66;100.00;98898.81;1760691;81;21047;-71
2022/09/14 06:41:19;;;;;;;6.55;4.17;;;;;;;12.72;100.00;98888.78;1760786;81;21055;-72
2022/09/14 06:43:46;;;;;;;4.92;4.42;;;;;;;12.77;100.00;98892.79;1759617;81;21148;-69
2022/09/14 06:46:19;;;;;;;6.03;3.72;;;;;;;12.86;100.00;98889.73;1743524;81;20985;-69
2022/09/14 06:48:53;;;;;;;4.37;3.97;;;;;;;12.93;100.00;98883.48;1736732;81;21543;-70
2022/09/14 06:51:29;;;;;;;8.88;4.22;;;;;;;12.94;100.00;98879.70;1761055;81;20983;-69
2022/09/14 06:54:00;;;;;;;3.45;3.15;;;;;;;12.96;100.00;98888.30;1752418;81;21801;-71
2022/09/14 06:56:28;;;;;;;4.30;3.50;;;;;;;13.02;100.00;98879.06;1742805;81;21123;-70
2022/09/14 06:58:56;;;;;;;4.10;3.77;;;;;;;13.08;100.00;98877.94;1729119;81;20913;-69
2022/09/14 07:01:24;;;;;;;4.17;3.25;;;;;;;13.14;100.00;98876.56;1735315;81;21089;-70
2022/09/14 07:03:51;;;;;;;5.22;4.45;;;;;;;13.21;100.00;98860.27;1754143;81;21091;-73
2022/09/14 07:06:22;;;;;;;4.72;4.03;;;;;;;13.25;100.00;98862.64;1742580;82;21103;-70
2022/09/14 07:08:50;;;;;;;3.98;3.65;;;;;;;13.31;100.00;98875.01;1733534;81;21160;-70
2022/09/14 07:11:20;;;;;;;6.92;4.45;;;;;;;13.35;100.00;98873.34;1760820;81;21004;-70
2022/09/14 07:13:47;;;;;;;4.45;4.08;;;;;;;13.41;100.00;98869.49;1758910;80;21058;-71
2022/09/14 07:16:14;;;;;;;6.40;3.52;;;;;;;13.49;100.00;98870.73;1742494;81;21064;-71
2022/09/14 07:18:41;;;;;;;4.75;4.00;;;;;;;13.54;99.98;98866.63;1747736;81;21488;-68
2022/09/14 07:21:14;;;;;;;5.78;4.40;;;;;;;13.54;99.00;98861.22;1760749;81;21107;-71
2022/09/14 07:23:42;;;;;;;;;;;;;;;13.59;98.69;98865.76;1762299;81;21497;-69
2022/09/14 07:26:21;;;;;;;4.40;3.40;;;;;;;13.64;97.27;98864.34;1760938;81;20173;-68
2022/09/14 07:28:51;;;;;;;5.65;4.30;;;;;;;13.64;96.51;98867.05;1753533;81;21056;-70
2022/09/14 07:31:24;;;;;;;3.83;3.55;;;;;;;13.66;95.75;98862.98;1742793;81;21172;-71
2022/09/14 07:33:57;;;;;;;3.77;3.47;;;;;;;13.68;94.52;98861.31;1727515;81;21121;-70
2022/09/14 07:36:25;;;;;;;4.25;3.95;;;;;;;13.70;94.27;98859.95;1740186;81;21545;-69
2022/09/14 07:38:52;;;;;;;3.98;3.60;;;;;;;13.75;93.99;98855.83;1757475;81;21604;-68
2022/09/14 07:41:21;;;;;;;5.95;3.33;;;;;;;13.79;93.43;98846.04;1752898;81;20992;-68
2022/09/14 07:43:50;;;;;;;3.50;3.20;;;;;;;13.83;93.14;98848.95;1758615;80;21112;-69
2022/09/14 07:46:18;;;;;;;4.53;3.42;;;;;;;13.84;92.45;98858.68;1759036;81;21244;-71
2022/09/14 07:48:45;;;;;;;6.60;4.67;;;;;;;13.85;92.39;98854.34;1758921;81;21035;-69
2022/09/14 07:51:12;;;;;;;3.33;3.02;;;;;;;13.91;92.25;98842.88;1758636;81;20941;-70
2022/09/14 07:53:41;;;;;;;6.62;3.70;;;;;;;13.89;91.63;98850.50;1758939;81;21040;-69
2022/09/14 07:56:10;;;;;;;3.30;2.60;;;;;;;13.92;91.87;98853.95;1758564;81;21005;-69
2022/09/14 07:58:36;;;;;;;3.98;3.37;;;;;;;13.97;91.66;98851.19;1735808;81;21929;-69
2022/09/14 08:01:07;;;;;;;4.22;3.85;;;;;;;14.03;91.31;98847.87;1758667;81;21025;-70
2022/09/14 08:03:38;;;;;;;3.00;2.72;;;;;;;14.05;91.04;98847.84;1758480;79;21043;-70
2022/09/14 08:06:09;;;;;;;3.45;3.15;;;;;;;14.11;90.79;98849.90;1758872;81;21012;-68
2022/09/14 08:08:40;;;;;;;4.03;3.62;;;;;;;14.20;90.45;98844.89;1758228;81;21047;-71
2022/09/14 08:11:11;;;;;;;3.30;2.90;;;;;;;14.27;90.46;98845.88;1758444;81;21265;-68
2022/09/14 08:13:42;;;;;;;4.65;3.22;;;;;;;14.32;89.20;98839.84;1758786;80;21321;-69
2022/09/14 08:16:09;;;;;;;5.37;3.17;;;;;;;14.39;88.39;98845.70;1758809;81;21102;-69
2022/09/14 08:18:38;;;;;;;3.40;3.20;;;;;;;14.45;87.58;98836.95;1758682;81;21047;-71
2022/09/14 08:21:14;;;;;;;3.80;3.50;;;;;;;14.56;86.28;98840.30;1758490;81;22183;-69
2022/09/14 08:23:41;;;;;;;2.98;2.75;;;;;;;14.66;85.92;98832.02;1758665;81;21078;-71
2022/09/14 08:26:14;;;;;;;3.37;3.02;;;;;;;14.77;84.28;98830.16;1758528;81;20928;-70
2022/09/14 08:28:40;;;;;;;5.85;5.30;;;;;;;14.86;83.81;98824.89;1756396;80;21020;-69
2022/09/14 08:31:12;;;;;;;3.15;2.95;;;;;;;14.94;83.84;98827.44;1754216;80;21036;-71
2022/09/14 08:33:43;;;;;;;3.65;3.33;;;;;;;15.02;82.80;98833.51;1757986;81;21044;-70
2022/09/14 08:36:11;;;;;;;5.70;2.98;;;;;;;15.06;81.61;98828.55;1756236;81;21173;-69
2022/09/14 08:38:38;;;;;;;3.17;2.92;;;;;;;15.08;80.47;98822.84;1757234;80;20906;-72
2022/09/14 08:41:34;;;;;;;5.42;3.30;;;;;;;15.12;80.53;98817.06;1753866;80;21303;-70
2022/09/14 08:44:14;;;;;;;4.10;3.02;;;;;;;15.20;80.42;98815.03;1742030;82;20985;-67
2022/09/14 08:46:48;;;;;;;3.42;3.12;;;;;;;15.32;80.07;98818.57;1765729;80;21082;-70
2022/09/14 08:49:40;;;;;;;3.67;3.22;;;;;;;15.40;78.50;98813.79;1761460;81;22273;-70
2022/09/14 08:52:44;;;;;;;3.67;3.37;;;;;;;15.48;77.99;98816.61;1776498;79;21107;-73
2022/09/14 08:55:40;;;;;;;5.33;4.23;;;;;;;15.58;76.24;98812.37;1740654;80;21043;-68
2022/09/14 08:58:27;;;;;;;9.23;3.37;;;;;;;15.66;74.98;98821.68;1733768;82;21547;-69
2022/09/14 09:01:31;;;;;;;4.58;3.10;;;;;;;15.70;73.55;98813.19;1734094;81;21085;-69
2022/09/14 09:04:21;;;;;;;5.85;3.85;;;;;;;15.70;73.10;98813.19;1711492;82;21412;-71
2022/09/14 09:06:54;;;;;;;4.08;3.67;;;;;;;15.74;73.05;98809.30;1747176;81;21090;-68
2022/09/14 09:09:48;;;;;;;3.77;3.42;;;;;;;15.70;72.38;98813.19;1737327;81;21048;-71
2022/09/14 09:12:17;;;;;;;;;;;;;;;15.74;72.74;98806.59;1715086;82;21082;-67
2022/09/14 09:14:59;;;;;;;4.67;4.20;;;;;;;15.78;74.51;98802.19;1712210;82;20237;-69
2022/09/14 09:17:41;;;;;;;7.95;4.42;;;;;;;15.82;73.54;98805.89;1711748;83;21202;-68
2022/09/14 09:20:25;;;;;;;5.50;3.80;;;;;;;15.87;73.78;98808.48;1758074;81;21594;-69
2022/09/14 09:23:13;;;;;;;;;;;;;;;15.93;72.98;98799.11;1768418;80;21564;-67
2022/09/14 09:25:59;;;;;;;4.58;3.62;;;;;;;15.93;72.65;98810.76;1765732;80;20548;-70
2022/09/14 09:28:27;;;;;;;10.82;3.37;;;;;;;15.86;70.75;98800.09;1731382;81;21128;-68
2022/09/14 09:30:57;;;;;;;8.28;3.90;;;;;;;15.85;71.03;98807.42;1735181;82;21194;-73
2022/09/14 09:33:26;;;;;;;3.92;3.42;;;;;;;15.86;71.38;98818.53;1735332;81;20987;-73
2022/09/14 09:35:54;;;;;;;4.85;3.98;;;;;;;15.88;70.39;98802.73;1735626;81;21058;-71
2022/09/14 09:38:25;;;;;;;3.65;3.30;;;;;;;15.90;69.45;98811.38;1728731;81;21017;-69
2022/09/14 09:41:03;;;;;;;4.10;3.30;;;;;;;15.93;68.69;98808.59;1764495;81;21027;-68
2022/09/14 09:43:31;;;;;;;3.70;3.40;;;;;;;15.93;67.66;98803.17;1652516;85;21314;-69
2022/09/14 09:46:05;;;;;;;4.55;2.77;;;;;;;15.94;68.23;98803.42;1728094;83;21162;-70
2022/09/14 09:48:41;;;;;;;2.98;2.77;;;;;;;15.95;68.03;98803.68;1712491;83;21011;-69
2022/09/14 09:51:25;;;;;;;4.30;3.02;;;;;;;15.95;67.76;98802.33;1701404;83;21060;-69
2022/09/14 09:54:01;;;;;;;2.95;2.75;;;;;;;15.97;68.10;98808.26;1727956;82;21022;-68
2022/09/14 09:56:31;;;;;;;4.90;2.98;;;;;;;15.95;68.20;98813.17;1720798;83;21244;-70
2022/09/14 09:59:00;;;;;;;4.90;3.60;;;;;;;15.95;68.23;98820.76;1727141;82;20982;-68
2022/09/14 10:01:33;;;;;;;3.62;3.25;;;;;;;15.95;68.28;98810.46;1712571;83;21020;-69
2022/09/14 10:04:17;;;;;;;2.98;2.75;;;;;;;15.95;68.46;98808.55;1715850;81;21031;-68
2022/09/14 10:06:48;;;;;;;4.10;3.70;;;;;;;15.96;68.49;98812.07;1677358;83;21048;-71
2022/09/14 10:09:22;;;;;;;4.70;2.90;;;;;;;15.95;68.77;98804.48;1709280;83;21525;-68
2022/09/14 10:12:00;;;;;;;5.33;3.45;;;;;;;15.94;68.88;98806.94;1683062;84;21120;-67
2022/09/14 10:14:34;;;;;;;3.40;2.75;;;;;;;15.91;68.74;98804.86;1683034;85;21524;-79
2022/09/14 10:17:18;;;;;;;8.05;4.50;;;;;;;15.89;69.01;98805.70;1725247;82;21044;-68
2022/09/14 10:19:51;;;;;;;5.20;3.27;;;;;;;15.89;69.13;98809.77;1694242;82;21103;-70
2022/09/14 10:22:35;;;;;;;3.55;3.25;;;;;;;15.87;68.97;98813.36;1729847;82;22031;-71
2022/09/14 10:25:20;;;;;;;4.05;2.92;;;;;;;15.86;68.95;98809.03;1719036;82;21049;-71
2022/09/14 10:27:58;;;;;;;3.87;3.12;;;;;;;15.83;69.07;98808.27;1728174;83;21556;-64
2022/09/14 10:30:48;;;;;;;5.60;3.30;;;;;;;15.79;69.27;98814.61;1732668;82;21529;-65
2022/09/14 10:33:17;;;;;;;4.45;4.05;;;;;;;15.76;69.39;98805.19;1730258;82;21120;-65
2022/09/14 10:36:19;;;;;;;10.10;4.62;;;;;;;15.68;69.41;98812.13;1727865;82;21224;-66
2022/09/14 10:39:05;;;;;;;5.80;4.12;;;;;;;15.65;69.93;98816.00;1731674;82;21498;-66
2022/09/14 10:41:56;;;;;;;5.55;5.05;;;;;;;15.59;70.48;98815.85;1734771;80;21561;-64
2022/09/14 10:44:52;;;;;;;6.67;4.67;;;;;;;15.56;71.04;98815.12;1758022;81;21496;-64
2022/09/14 10:47:31;;;;;;;7.28;6.60;;;;;;;15.54;71.74;98820.83;1757959;81;21094;-65
2022/09/14 10:50:47;;;;;;;6.28;4.78;;;;;;;15.55;72.67;98810.80;1747065;81;21247;-63
2022/09/14 10:53:51;;;;;;;13.03;6.35;;;;;;;15.54;73.47;98809.99;1742879;81;21389;-65
2022/09/14 10:56:20;;;;;;;;;;;;;;;15.44;74.49;98812.91;1760347;81;21039;-66
2022/09/14 10:59:30;;;;;;;10.03;6.00;;;;;;;15.45;75.38;98815.05;1758238;81;20161;-65
2022/09/14 11:02:42;;;;;;;10.68;6.33;;;;;;;15.45;75.74;98810.98;1757788;81;21079;-64
2022/09/14 11:05:27;;;;;;;6.70;6.10;;;;;;;15.45;76.31;98805.55;1757920;81;21147;-65
2022/09/14 11:08:14;;;;;;;7.17;6.47;;;;;;;15.48;76.87;98798.20;1751064;81;20994;-69
2022/09/14 11:11:05;;;;;;;9.25;8.25;;;;;;;15.55;77.81;98795.89;1722501;81;22191;-78
2022/09/14 11:13:49;;;;;;;11.18;9.00;;;;;;;15.63;78.42;98794.61;1732984;81;21007;-69
2022/09/14 11:16:47;;;;;;;10.58;6.50;;;;;;;15.71;79.01;98787.69;1727754;83;21115;-73
2022/09/14 11:19:53;;;;;;;8.68;7.78;;;;;;;15.81;79.45;98787.45;1727455;83;21187;-70
2022/09/14 11:22:42;;;;;;;6.22;5.70;;;;;;;15.87;79.69;98787.60;1708439;81;21050;-70
2022/09/14 11:25:17;;;;;;;8.55;4.67;;;;;;;15.84;79.77;98788.19;1733750;81;21030;-71
2022/09/14 11:28:00;;;;;;;7.12;4.95;;;;;;;15.76;79.84;98782.15;1728084;83;21062;-69
2022/09/14 11:30:51;;;;;;;9.60;5.10;;;;;;;15.77;80.44;98786.47;1704124;83;21086;-69
2022/09/14 11:34:06;;;;;;;4.03;3.62;;;;;;;15.82;80.64;98780.94;1727475;83;22109;-67
2022/09/14 11:36:40;;;;;;;5.15;4.47;;;;;;;15.88;79.81;98785.11;1727636;83;21074;-70
2022/09/14 11:39:32;;;;;;;5.47;4.05;;;;;;;15.89;80.08;98781.84;1747940;81;21032;-69
2022/09/14 11:42:08;;;;;;;4.25;3.95;;;;;;;15.88;79.58;98779.69;1758971;80;21027;-70
2022/09/14 11:44:40;;;;;;;7.00;4.40;;;;;;;15.88;79.80;98776.97;1765614;81;21093;-67
2022/09/14 11:47:19;;;;;;;4.42;4.03;;;;;;;15.86;79.99;98768.91;1765134;81;21229;-72
2022/09/14 11:50:19;;;;;;;5.08;4.10;;;;;;;15.80;80.48;98757.38;1765810;80;20991;-68
2022/09/14 11:52:50;;;;;;;5.10;4.60;;;;;;;15.70;81.67;98758.41;1762077;81;20995;-67
2022/09/14 11:55:17;;;;;;;8.40;7.00;;;;;;;15.65;82.77;98759.08;1765572;81;21551;-69
2022/09/14 11:57:45;;;;;;;6.55;5.15;;;;;;;15.67;83.00;98757.69;1765094;81;21106;-69
2022/09/14 12:00:32;;;;;;;5.33;4.80;;;;;;;15.66;83.58;98761.49;1761503;81;21955;-69
2022/09/14 12:03:18;;;;;;;5.72;4.60;;;;;;;15.63;84.36;98753.95;1741792;82;20954;-67
2022/09/14 12:05:47;;;;;;;4.95;4.03;;;;;;;15.62;85.37;98758.34;1764535;80;21397;-66